Terminal Aerodrome Forecast
Issued by NWS Sterling, VA

Current Version | Previous Version | Graphics & Text | Print | Product List | Glossary On
Versions: 1 2 3 4 5 6 7 8 9 10 11 12 13 14
000
FTUS41 KLWX 170800 AAA
TAFMRB
TAF AMD
KMRB 170834Z 1709/1806 01004KT P6SM FEW250
     FM171100 07005KT P6SM SKC
     FM171400 12009KT P6SM SKC
     FM180400 12005KT P6SM BKN250=

USA.gov is the U.S. government's official web portal to all federal, state and local government web resources and services.